Flight Track Log - Related Links

Times and Time Zones

All times are in EDT time to prevent confusion due to time zone crossing. See the JZA8339 flight status page for this flight to view local times or setup timezone preferences in your user account.

Time Position Orientation Groundspeed Altitude Reporting Facility
EDT Latitude Longitude Course Direction KTS MPH feet Rate Location/Type
Sun 06:53:11 PM 49.8667 -97.2333 180° South 140 161 2,700  Level Winnipeg Center
Sun 06:54:11 PM 49.8333 -97.2333 180° South 170 196 4,900 2,450 Climbing Winnipeg Center
Sun 06:55:11 PM 49.7833 -97.2833 213° Southwest 210 242 7,600 2,450 Climbing Winnipeg Center
Sun 06:56:11 PM 49.8167 -97.3500 308° West 260 299 9,800 2,500 Climbing Winnipeg Center
Sun 06:57:11 PM 49.8500 -97.4667 294° West 260 299 12,600 1,550 Climbing Winnipeg Center
Sun 06:58:11 PM 49.9000 -97.5667 308° West 320 368 12,900 1,000 Climbing Winnipeg Center
Sun 06:59:11 PM 49.9500 -97.7000 300° West 350 403 14,600 1,750 Climbing Winnipeg Center
Sun 07:00:11 PM 49.9833 -97.8500 289° West 360 414 16,400 2,100 Climbing Winnipeg Center
Sun 07:01:11 PM 50.0000 -97.9833 281° West 350 403 18,800 2,300 Climbing Winnipeg Center
Sun 07:02:11 PM 50.0000 -98.1333 270° West 350 403 21,000 2,200 Climbing Winnipeg Center
Sun 07:03:11 PM 50.0167 -98.3000 279° West 340 391 23,200 2,050 Climbing Winnipeg Center
Sun 07:04:11 PM 50.0167 -98.4167 270° West 330 380 25,100 1,700 Climbing Winnipeg Center
Sun 07:05:11 PM 50.0333 -98.5833 279° West 330 380 26,600 1,350 Climbing Winnipeg Center
Sun 07:06:11 PM 50.0500 -98.7167 281° West 330 380 27,800 1,000 Climbing Winnipeg Center
Sun 07:07:11 PM 50.0667 -98.8667 280° West 340 391 28,600 1,050 Climbing Winnipeg Center
Sun 07:08:11 PM 50.0833 -99.0333 279° West 350 403 29,900 1,350 Climbing Winnipeg Center
Sun 07:09:11 PM 50.1000 -99.1833 280° West 350 403 31,300 1,300 Climbing Winnipeg Center
Sun 07:10:11 PM 50.1000 -99.3167 270° West 340 391 32,500 1,450 Climbing Winnipeg Center
Sun 07:11:11 PM 50.1167 -99.4500 281° West 330 380 34,200 1,100 Climbing Winnipeg Center
Sun 07:12:11 PM 50.1333 -99.5833 281° West 320 368 34,700 500 Climbing Winnipeg Center
Sun 07:13:11 PM 50.1333 -99.7333 270° West 330 380 35,200 350 Climbing Winnipeg Center
Sun 07:14:11 PM 50.1500 -99.8667 281° West 340 391 35,400 350 Climbing Winnipeg Center
Sun 07:15:11 PM 50.1500 -100.0167 270° West 340 391 35,900 300 Climbing Winnipeg Center
Sun 07:16:11 PM 50.1667 -100.1833 279° West 350 403 36,000 50 Climbing Winnipeg Center
Sun 07:17:11 PM 50.1833 -100.3333 280° West 370 426 36,000  Level Winnipeg Center
Sun 07:18:11 PM 50.2000 -100.5000 279° West 380 437 36,000  Level Winnipeg Center
Sun 07:19:11 PM 50.2000 -100.6500 270° West 380 437 36,000  Level Winnipeg Center
Sun 07:20:11 PM 50.2333 -100.8333 286° West 370 426 36,000  Level Winnipeg Center
Sun 07:21:11 PM 50.2500 -101.0000 279° West 370 426 36,000  Level Winnipeg Center
Sun 07:22:11 PM 50.2500 -101.1500 270° West 370 426 36,000  Level Winnipeg Center
Sun 07:23:11 PM 50.2667 -101.3167 279° West 380 437 36,000  Level Winnipeg Center
Sun 07:24:11 PM 50.2833 -101.4667 280° West 370 426 36,000  Level Winnipeg Center
Sun 07:25:11 PM 50.2833 -101.6333 270° West 370 426 36,000  Level Winnipeg Center
Sun 07:26:11 PM 50.3000 -101.7833 280° West 370 426 36,000  Level Winnipeg Center
Sun 07:27:11 PM 50.3000 -101.9500 270° West 370 426 36,000  Level Winnipeg Center
Sun 07:28:11 PM 50.3167 -102.1000 280° West 370 426 36,000  Level Winnipeg Center
Sun 07:29:11 PM 50.3333 -102.2833 278° West 360 414 36,000  Level Winnipeg Center
Sun 07:30:11 PM 50.3333 -102.4167 270° West 360 414 36,000  Level Winnipeg Center
Sun 07:31:11 PM 50.3667 -102.5833 287° West 360 414 36,000  Level Winnipeg Center
Sun 07:32:11 PM 50.3667 -102.7333 270° West 360 414 36,000  Level Winnipeg Center
Sun 07:33:11 PM 50.4000 -102.8833 289° West 360 414 36,000  Level Winnipeg Center
Sun 07:34:11 PM 50.4167 -103.0333 280° West 360 414 36,000  Level Winnipeg Center
Sun 07:35:11 PM 50.4500 -103.2000 287° West 360 414 36,000  Level Winnipeg Center
Sun 07:36:11 PM 50.4667 -103.3667 279° West 360 414 36,000  Level Winnipeg Center
Sun 07:37:11 PM 50.4833 -103.5000 281° West 360 414 36,000  Level Winnipeg Center
Sun 07:38:11 PM 50.5000 -103.6500 280° West 360 414 36,000  Level Winnipeg Center
Sun 07:39:11 PM 50.5333 -103.8167 288° West 360 414 36,000  Level Winnipeg Center
Sun 07:40:11 PM 50.5500 -103.9500 281° West 360 414 36,000  Level Winnipeg Center
Sun 07:41:11 PM 50.5833 -104.1167 288° West 360 414 36,000  Level Winnipeg Center
Sun 07:42:11 PM 50.5833 -104.2667 270° West 360 414 36,000  Level Winnipeg Center
Sun 07:43:11 PM 50.6000 -104.4333 279° West 360 414 36,000  Level Winnipeg Center
Sun 07:44:11 PM 50.6333 -104.5667 292° West 360 414 36,000  Level Winnipeg Center
Sun 07:45:11 PM 50.6500 -104.7333 279° West 360 414 36,000  Level Winnipeg Center
Sun 07:46:11 PM 50.6833 -104.9000 288° West 360 414 36,000  Level Winnipeg Center
Sun 07:47:11 PM 50.7000 -105.0667 279° West 360 414 36,000  Level Winnipeg Center
Sun 07:48:11 PM 50.7000 -105.2000 270° West 360 414 36,000  Level Winnipeg Center
Sun 07:49:11 PM 50.7333 -105.3667 288° West 360 414 36,000  Level Winnipeg Center
Sun 07:50:11 PM 50.7500 -105.5167 280° West 360 414 36,000  Level Winnipeg Center
Sun 07:51:11 PM 50.7667 -105.6667 280° West 360 414 36,000  Level Winnipeg Center
Sun 07:52:11 PM 50.8000 -105.8167 289° West 350 403 36,000  Level Winnipeg Center
Sun 07:53:11 PM 50.8000 -105.9833 270° West 360 414 36,000  Level Winnipeg Center
Sun 07:54:11 PM 50.8167 -106.1167 281° West 360 414 36,000  Level Winnipeg Center
Sun 07:55:11 PM 50.8500 -106.2833 288° West 350 403 36,000  Level Winnipeg Center
Sun 07:56:11 PM 50.8667 -106.4500 279° West 350 403 36,000  Level Winnipeg Center
Sun 07:57:11 PM 50.8833 -106.5833 281° West 350 403 36,000  Level Winnipeg Center
Sun 07:58:11 PM 50.8833 -106.7167 270° West 350 403 36,000  Level Winnipeg Center
Sun 07:59:11 PM 50.9167 -106.8833 288° West 350 403 36,000  Level Winnipeg Center
Sun 08:00:11 PM 50.9333 -107.0500 279° West 350 403 36,000  Level Winnipeg Center
Sun 08:01:11 PM 50.9500 -107.1833 281° West 350 403 36,000  Level Winnipeg Center
Sun 08:02:11 PM 50.9667 -107.3500 279° West 350 403 36,000  Level Winnipeg Center
Sun 08:03:11 PM 50.9667 -107.4833 270° West 350 403 36,000  Level Winnipeg Center
Sun 08:04:11 PM 51.0000 -107.6500 288° West 350 403 36,000  Level Winnipeg Center
Sun 08:05:11 PM 51.0167 -107.8167 279° West 350 403 36,000  Level Winnipeg Center
Sun 08:06:11 PM 51.0333 -107.9667 280° West 360 414 36,000  Level Winnipeg Center
Sun 08:07:11 PM 51.0500 -108.1167 280° West 350 403 36,000  Level Winnipeg Center
Sun 08:08:11 PM 51.0500 -108.2833 270° West 350 403 36,000  Level Winnipeg Center
Sun 08:09:11 PM 51.0667 -108.4500 279° West 360 414 36,000  Level Winnipeg Center
Sun 08:10:11 PM 51.0833 -108.5833 281° West 350 403 36,000  Level Winnipeg Center
Sun 08:11:11 PM 51.1000 -108.7333 280° West 360 414 36,000  Level Winnipeg Center
Sun 08:12:11 PM 51.1167 -108.9000 279° West 360 414 36,000  Level Winnipeg Center
Sun 08:13:11 PM 51.1167 -109.0500 270° West 360 414 36,000  Level Winnipeg Center
Sun 08:14:11 PM 51.1333 -109.2167 279° West 360 414 36,000  Level Winnipeg Center
Sun 08:15:11 PM 51.1667 -109.3667 290° West 360 414 36,000  Level Winnipeg Center
Sun 08:16:11 PM 51.1667 -109.5333 270° West 360 414 36,000  Level Winnipeg Center
Sun 08:17:11 PM 51.1833 -109.7000 279° West 360 414 36,000  Level Winnipeg Center
Sun 08:18:11 PM 51.2000 -109.8667 279° West 360 414 36,000  Level Winnipeg Center
Sun 08:19:11 PM 51.2000 -110.0000 270° West 360 414 36,000  Level Winnipeg Center
Sun 08:20:11 PM 51.2167 -110.1667 279° West 360 414 36,000  Level Winnipeg Center
Sun 08:21:11 PM 51.2333 -110.3333 279° West 370 426 36,000  Level Winnipeg Center
Sun 08:22:11 PM 51.2500 -110.4667 281° West 370 426 36,000  Level Winnipeg Center
Sun 08:23:11 PM 51.2667 -110.6667 278° West 370 426 36,000  Level Winnipeg Center
Sun 08:24:11 PM 51.2833 -110.8000 281° West 370 426 36,000  Level Winnipeg Center
Sun 08:25:11 PM 51.3000 -110.9667 279° West 370 426 36,000  Level Winnipeg Center
Sun 08:26:11 PM 51.3167 -111.1333 279° West 370 426 36,000  Level Winnipeg Center
Sun 08:27:11 PM 51.3167 -111.3000 270° West 370 426 36,000  Level Winnipeg Center
Sun 08:28:11 PM 51.3333 -111.4667 279° West 370 426 36,000  Level Winnipeg Center
Sun 08:29:11 PM 51.3500 -111.6333 279° West 370 426 36,000  Level Winnipeg Center
Sun 08:30:11 PM 51.3667 -111.7833 280° West 370 426 36,000 -900 Level Winnipeg Center
Sun 08:31:11 PM 51.3833 -111.9500 279° West 360 414 34,200 -2,150 Descending Winnipeg Center
Sun 08:32:11 PM 51.3667 -112.1167 261° West 340 391 31,700 -2,450 Descending Winnipeg Center
Sun 08:33:11 PM 51.3833 -112.2333 283° West 320 368 29,300 -2,500 Descending Winnipeg Center
Sun 08:34:11 PM 51.4000 -112.3667 281° West 310 357 26,700 -2,500 Descending Winnipeg Center
Sun 08:35:11 PM 51.4000 -112.5000 270° West 320 368 24,300 -2,500 Descending Winnipeg Center
Sun 08:36:11 PM 51.4167 -112.6667 279° West 320 368 21,700 -2,150 Descending Winnipeg Center
Sun 08:37:11 PM 51.4167 -112.7833 270° West 320 368 20,000 -1,650 Descending Winnipeg Center
Sun 08:38:11 PM 51.4333 -112.9167 281° West 300 345 18,400 -1,600 Descending Winnipeg Center
Sun 08:39:11 PM 51.4500 -113.0667 280° West 290 334 16,800 -1,378 Descending Winnipeg Center
Sun 08:40:26 PM 51.4333 -113.1833 257° West 270 311 15,300 -1,289 Descending Edmonton Center
Sun 08:41:26 PM 51.4500 -113.3000 283° West 250 288 13,900 -1,450 Descending Edmonton Center
Sun 08:42:26 PM 51.4000 -113.3667 220° Southwest 260 299 12,400 -1,650 Descending Edmonton Center
Sun 08:43:26 PM 51.3333 -113.4333 212° Southwest 280 322 10,600 -1,700 Descending Edmonton Center
Sun 08:44:26 PM 51.2667 -113.5000 212° Southwest 280 322 9,000 -1,600 Descending Edmonton Center
Sun 08:45:26 PM 51.1833 -113.5667 207° Southwest 270 311 7,400 -1,400 Descending Edmonton Center
Sun 08:46:26 PM 51.1500 -113.6500 237° Southwest 260 299 6,200 -900 Descending Edmonton Center
Sun 08:47:26 PM 51.1000 -113.7333 226° Southwest 230 265 5,600 -500 Descending Edmonton Center
Sun 08:48:26 PM 51.0667 -113.8167 238° Southwest 200 230 5,200 -200 Descending Edmonton Center
Sun 08:49:26 PM 51.0500 -113.8667 242° Southwest 180 207 5,200 -200 Level Edmonton Center
Sun 08:50:26 PM 51.0667 -113.9500 288° West 150 173 4,800 -550 Descending Edmonton Center
Sun 08:51:26 PM 51.0667 -114.0000 270° West 140 161 4,100 -600 Descending Edmonton Center
Sun 08:52:26 PM 51.0833 -114.0333 309° West 130 150 3,600 -250 Descending Edmonton Center
Sun 08:53:26 PM 51.1000 -114.0667 309° West 10 12 3,600  Level Edmonton Center
Sun 08:54:26 PM 51.1000 -114.0333 90° East 20 23 3,600  Level Edmonton Center

Login

Don't have an account? Register now (free) for customized features, flight alerts, and more!